Terminal Aerodrome Forecast
Issued by NWS Green Bay, WI

Home | Current Version | Previous Version | Text Only | Print | Product List | Glossary Off
Versions: 1 2 3 4 5 6 7 8 9 10 11 12 13 14 15 16 17 18 19

000
FTUS43 KGRB 181520 AAB
TAFGRB
TAF AMD
KGRB 181520Z 1815/1912 21006KT P6SM SCT035
      TEMPO 1815/1817 BKN030
     FM181700 21010G17KT P6SM BKN140
     FM182300 24005KT P6SM VCSH SCT040 BKN080
      TEMPO 1900/1904 3SM TSRA BKN030CB
     FM190500 34007KT P6SM VCSH SCT015 BKN060=

USA.gov is the U.S. government's official web portal to all federal, state and local government web resources and services.